Tafton, Arkansas
Current Conditions -  °F | °C
As of 10:53 AM on Friday 31 Oct 2014 (Local Time) from KLIT Reporting Station
Few Clouds Few Clouds  
Wind Chill: 61°   Ceiling: Unl
Heat Index: 61°   Visibility: 10mi
Dew Point: 39°   Wind: 20mph
Humidity: 44%   Direction: 350°N
Pressure: 30.23"   Gusts: 25mph
Location:  34.6196°N, 92.2211°W
Report Text: KLIT 311553Z 35017G22KT 10SM FEW040 16/04 A3023 RMK AO2 SLP237 T01610039
Loading
Personal Weather Stations






























Interactive Weather Map
Tropical Storm Tracking
New forecast layout! Learn more

10-Day Weather Forecast

Advertisements
Track Severe Weather on mobile